createdAt,value
2023-08-14T00:01:30.720Z,62.78
2023-08-14T00:03:06.072Z,64.07
2023-08-14T00:04:41.004Z,63.26
2023-08-14T00:06:15.434Z,63.34
2023-08-14T00:07:50.398Z,62.17
2023-08-14T00:09:25.229Z,62.76
2023-08-14T00:10:59.650Z,63.03
2023-08-14T00:12:34.509Z,61.66
2023-08-14T00:14:09.555Z,61.47
2023-08-14T00:15:44.478Z,62.49
2023-08-14T00:17:19.370Z,62.27
2023-08-14T00:18:55.272Z,63.40
2023-08-14T00:20:30.430Z,62.99
2023-08-14T00:22:05.303Z,63.84
2023-08-14T00:23:40.152Z,64.19
2023-08-14T00:25:14.942Z,63.82
2023-08-14T00:26:49.875Z,64.04
2023-08-14T00:28:24.809Z,64.28
2023-08-14T00:29:59.363Z,63.20
2023-08-14T00:31:34.230Z,63.14
2023-08-14T00:33:09.210Z,63.76
2023-08-14T00:34:44.099Z,63.14
2023-08-14T00:36:19.011Z,62.83
2023-08-14T00:37:53.860Z,62.77
2023-08-14T00:39:28.374Z,62.51
2023-08-14T00:41:03.587Z,62.16
2023-08-14T00:42:40.791Z,61.37
2023-08-14T00:44:16.297Z,62.71
2023-08-14T00:45:54.743Z,62.98
2023-08-14T00:47:29.993Z,62.82
2023-08-14T00:49:05.157Z,63.52
2023-08-14T00:50:40.394Z,63.57
2023-08-14T00:52:15.697Z,62.79
2023-08-14T00:53:52.290Z,63.65
2023-08-14T00:55:31.055Z,63.15
2023-08-14T00:57:06.240Z,63.82
2023-08-14T00:58:41.666Z,63.37
2023-08-14T01:00:16.715Z,61.87
2023-08-14T01:01:51.635Z,62.24
2023-08-14T01:03:27.245Z,62.97
2023-08-14T01:05:02.963Z,64.32
2023-08-14T01:06:38.206Z,63.90
2023-08-14T01:08:13.074Z,64.40
2023-08-14T01:09:48.280Z,63.22
2023-08-14T01:11:23.106Z,65.07
2023-08-14T01:13:19.938Z,64.56
2023-08-14T01:15:04.376Z,63.31
2023-08-14T01:16:46.627Z,64.93
2023-08-14T01:18:23.787Z,64.78
2023-08-14T01:19:59.674Z,64.10
2023-08-14T01:21:47.409Z,62.55
2023-08-14T01:23:35.703Z,63.48
2023-08-14T01:25:49.915Z,63.58
2023-08-14T01:27:25.363Z,62.87
2023-08-14T01:29:03.595Z,64.00
2023-08-14T01:30:39.357Z,63.19
2023-08-14T01:32:14.242Z,63.78
2023-08-14T01:33:48.771Z,63.43
2023-08-14T01:35:26.438Z,63.79
2023-08-14T01:37:11.176Z,63.56
2023-08-14T01:39:00.083Z,63.42
2023-08-14T01:40:34.913Z,63.58
2023-08-14T01:42:30.367Z,62.32
2023-08-14T01:44:08.831Z,63.24
2023-08-14T01:45:43.945Z,63.07
2023-08-14T01:47:19.247Z,64.14
2023-08-14T01:48:57.342Z,64.62
2023-08-14T01:50:33.299Z,64.15
2023-08-14T01:52:08.662Z,64.50
2023-08-14T01:53:43.801Z,63.79
2023-08-14T01:55:18.677Z,64.86
2023-08-14T01:56:53.736Z,64.44
2023-08-14T01:58:28.567Z,64.89
2023-08-14T02:00:03.360Z,65.06
2023-08-14T02:01:38.137Z,65.17
2023-08-14T02:03:13.738Z,64.27
2023-08-14T02:04:49.385Z,63.82
2023-08-14T02:06:25.815Z,63.74
2023-08-14T02:08:00.324Z,64.37
2023-08-14T02:09:35.831Z,65.05
2023-08-14T02:11:11.438Z,63.53
2023-08-14T02:12:46.336Z,63.08
2023-08-14T02:14:21.308Z,62.52
2023-08-14T02:15:56.273Z,62.21
2023-08-14T02:17:31.208Z,63.13
2023-08-14T02:19:06.155Z,63.30
2023-08-14T02:20:51.445Z,64.31
2023-08-14T02:22:26.339Z,64.52
2023-08-14T02:24:01.170Z,63.58
2023-08-14T02:25:41.388Z,63.88
2023-08-14T02:27:16.496Z,63.46
2023-08-14T02:28:51.884Z,64.07
2023-08-14T02:30:26.707Z,63.91
2023-08-14T02:32:01.125Z,64.92
2023-08-14T02:33:35.908Z,64.72
2023-08-14T02:35:10.695Z,65.14
2023-08-14T02:36:45.416Z,65.03
2023-08-14T02:38:19.856Z,66.39
2023-08-14T02:39:54.594Z,65.66
2023-08-14T02:41:31.007Z,65.43
2023-08-14T02:43:05.936Z,64.91
2023-08-14T02:44:40.838Z,64.90
2023-08-14T02:46:15.808Z,65.35
2023-08-14T02:47:50.746Z,64.87
2023-08-14T02:49:25.825Z,64.25
2023-08-14T02:51:00.880Z,64.66
2023-08-14T02:52:35.749Z,65.49
2023-08-14T02:54:10.709Z,66.47
2023-08-14T02:55:50.973Z,67.09
2023-08-14T02:57:25.811Z,65.38
2023-08-14T02:59:00.240Z,65.75
2023-08-14T03:00:35.301Z,65.48
2023-08-14T03:02:10.194Z,65.16
2023-08-14T03:03:44.648Z,64.54
2023-08-14T03:05:19.660Z,65.62
2023-08-14T03:06:54.707Z,66.21
2023-08-14T03:08:29.596Z,65.39
2023-08-14T03:10:04.766Z,65.66
2023-08-14T03:11:39.680Z,65.05
2023-08-14T03:13:14.714Z,65.31
2023-08-14T03:14:49.543Z,66.48
2023-08-14T03:16:24.100Z,67.41
2023-08-14T03:17:58.942Z,67.79
2023-08-14T03:19:34.242Z,66.74
2023-08-14T03:21:09.272Z,66.23
2023-08-14T03:22:44.120Z,66.22
2023-08-14T03:24:19.021Z,66.16
2023-08-14T03:25:53.962Z,65.16
2023-08-14T03:27:28.876Z,65.01
2023-08-14T03:29:03.814Z,65.91
2023-08-14T03:30:42.108Z,65.63
2023-08-14T03:32:17.386Z,66.06
2023-08-14T03:33:52.479Z,65.32
2023-08-14T03:35:27.418Z,66.44
2023-08-14T03:37:01.813Z,65.63
2023-08-14T03:38:36.751Z,66.17
2023-08-14T03:40:12.007Z,66.92
2023-08-14T03:41:46.907Z,66.49
2023-08-14T03:43:21.315Z,66.14
2023-08-14T03:44:56.285Z,66.07
2023-08-14T03:46:31.116Z,66.74
2023-08-14T03:48:05.789Z,66.63
2023-08-14T03:49:40.621Z,66.05
2023-08-14T03:51:15.036Z,65.94
2023-08-14T03:52:52.328Z,65.13
2023-08-14T03:54:27.160Z,66.11
2023-08-14T03:56:01.714Z,66.33
2023-08-14T03:57:37.097Z,66.40
2023-08-14T03:59:12.155Z,66.40
2023-08-14T04:00:48.991Z,65.26
2023-08-14T04:02:23.878Z,65.74
2023-08-14T04:03:58.505Z,64.95
2023-08-14T04:05:33.372Z,66.12
2023-08-14T04:07:07.809Z,66.59
2023-08-14T04:08:42.642Z,67.42
2023-08-14T04:10:17.350Z,66.15
2023-08-14T04:11:52.081Z,66.10
2023-08-14T04:13:29.654Z,66.66
2023-08-14T04:15:18.499Z,66.32
2023-08-14T04:16:53.874Z,67.28
2023-08-14T04:18:29.989Z,68.15
2023-08-14T04:20:05.077Z,67.94
2023-08-14T04:21:39.918Z,66.60
2023-08-14T04:23:14.389Z,67.03
2023-08-14T04:24:49.177Z,66.94
2023-08-14T04:26:23.593Z,66.94
2023-08-14T04:27:58.459Z,65.79
2023-08-14T04:29:33.309Z,66.35
2023-08-14T04:31:07.727Z,66.35
2023-08-14T04:32:43.101Z,66.65
2023-08-14T04:34:18.143Z,68.01
2023-08-14T04:35:53.120Z,68.55
2023-08-14T04:37:27.970Z,67.75
2023-08-14T04:39:02.950Z,66.76
2023-08-14T04:40:37.877Z,67.02
2023-08-14T04:42:12.774Z,67.47
2023-08-14T04:43:47.201Z,68.20
2023-08-14T04:45:21.966Z,68.30
2023-08-14T04:46:59.884Z,67.42
2023-08-14T04:48:35.560Z,66.72
2023-08-14T04:50:10.251Z,66.79
2023-08-14T04:51:45.030Z,66.44
2023-08-14T04:53:19.438Z,66.93
2023-08-14T04:54:54.228Z,67.63
2023-08-14T04:56:28.787Z,66.32
2023-08-14T04:58:03.700Z,67.25
2023-08-14T04:59:38.755Z,66.53
2023-08-14T05:01:13.753Z,66.36
2023-08-14T05:02:48.676Z,66.44
2023-08-14T05:04:25.332Z,68.23
2023-08-14T05:06:00.423Z,66.81
2023-08-14T05:07:35.338Z,67.37
2023-08-14T05:10:54.774Z,66.83
2023-08-14T05:12:29.944Z,67.42
2023-08-14T05:14:07.927Z,67.02
2023-08-14T05:15:44.170Z,68.00
2023-08-14T05:17:19.107Z,67.59
2023-08-14T05:18:53.742Z,65.54
2023-08-14T05:20:28.514Z,66.71
2023-08-14T05:22:02.929Z,66.04
2023-08-14T05:23:37.666Z,66.25
2023-08-14T05:25:12.819Z,65.80
2023-08-14T05:26:47.675Z,64.66
2023-08-14T05:28:22.635Z,65.02
2023-08-14T05:29:57.579Z,64.15
2023-08-14T05:31:32.484Z,65.07
2023-08-14T05:33:07.463Z,64.19
2023-08-14T05:34:42.418Z,65.60
2023-08-14T05:36:17.291Z,64.97
2023-08-14T05:37:54.188Z,65.94
2023-08-14T05:39:29.079Z,65.98
2023-08-14T05:41:03.960Z,65.03
2023-08-14T05:42:38.974Z,64.15
2023-08-14T05:44:13.701Z,64.90
2023-08-14T05:45:48.378Z,63.57
2023-08-14T05:47:23.257Z,60.00
2023-08-14T05:48:58.116Z,58.56
2023-08-14T05:50:32.945Z,59.11
2023-08-14T05:52:07.808Z,58.37
2023-08-14T05:53:42.747Z,61.78
2023-08-14T05:55:18.085Z,61.64
2023-08-14T05:56:53.316Z,62.45
2023-08-14T05:58:28.179Z,62.51
2023-08-14T06:00:02.603Z,63.59
2023-08-14T06:01:37.607Z,62.46
2023-08-14T06:03:12.841Z,61.93
2023-08-14T06:04:47.807Z,61.51
2023-08-14T06:06:22.428Z,61.97
2023-08-14T06:07:58.242Z,60.62
2023-08-14T06:09:33.263Z,60.80
2023-08-14T06:11:08.118Z,59.40
2023-08-14T06:12:43.421Z,59.74
2023-08-14T06:14:18.609Z,59.45
2023-08-14T06:15:53.577Z,59.85
2023-08-14T06:17:32.433Z,59.82
2023-08-14T06:19:07.674Z,60.40
2023-08-14T06:20:42.577Z,59.81
2023-08-14T06:22:19.718Z,60.05
2023-08-14T06:23:54.750Z,57.99
2023-08-14T06:25:31.143Z,57.76
2023-08-14T06:27:05.935Z,58.85
2023-08-14T06:28:40.851Z,57.10
2023-08-14T06:30:16.867Z,58.01
2023-08-14T06:31:52.049Z,57.46
2023-08-14T06:33:26.871Z,56.34
2023-08-14T06:35:01.346Z,56.20
2023-08-14T06:36:36.122Z,54.83
2023-08-14T06:38:10.565Z,50.48
2023-08-14T06:39:45.408Z,55.44
2023-08-14T06:41:20.441Z,51.78
2023-08-14T06:42:55.311Z,52.50
2023-08-14T06:44:30.452Z,50.67
2023-08-14T06:46:05.370Z,52.40
2023-08-14T06:47:46.608Z,52.39
2023-08-14T06:49:21.499Z,50.31
2023-08-14T06:50:58.027Z,48.86
2023-08-14T06:52:32.782Z,46.06
2023-08-14T06:54:07.908Z,46.44
2023-08-14T06:55:49.525Z,47.23
2023-08-14T06:57:24.399Z,45.29
2023-08-14T06:58:59.488Z,46.34
2023-08-14T07:00:34.593Z,46.68
2023-08-14T07:02:09.478Z,44.77
2023-08-14T07:03:44.420Z,44.73
2023-08-14T07:05:19.586Z,44.69
2023-08-14T07:06:54.738Z,46.69
2023-08-14T07:08:30.651Z,42.63
2023-08-14T07:10:05.765Z,41.21
2023-08-14T07:11:41.853Z,41.72
2023-08-14T07:13:16.712Z,41.06
2023-08-14T07:14:51.945Z,40.94
2023-08-14T07:16:26.832Z,39.31
2023-08-14T07:18:01.907Z,39.88
2023-08-14T07:19:38.060Z,39.47
2023-08-14T07:21:13.031Z,38.48
2023-08-14T07:22:48.582Z,38.42
2023-08-14T07:24:23.475Z,37.99
2023-08-14T07:26:01.981Z,37.62
2023-08-14T07:27:36.971Z,38.26
2023-08-14T07:29:11.939Z,36.65
2023-08-14T07:30:46.918Z,35.82
2023-08-14T07:32:22.244Z,36.06
2023-08-14T07:33:57.367Z,35.64
2023-08-14T07:35:32.748Z,36.03
2023-08-14T07:37:07.782Z,35.67
2023-08-14T07:38:42.877Z,36.33
2023-08-14T07:40:18.505Z,36.06
2023-08-14T07:41:53.341Z,34.92
2023-08-14T07:43:28.410Z,34.89
2023-08-14T07:45:03.593Z,34.97
2023-08-14T07:46:38.465Z,35.53
2023-08-14T07:48:13.641Z,36.28
2023-08-14T07:49:48.547Z,34.58
2023-08-14T07:51:24.066Z,34.55
2023-08-14T07:52:59.140Z,33.86
2023-08-14T07:54:34.470Z,33.93
2023-08-14T07:56:09.774Z,33.29
2023-08-14T07:57:47.994Z,33.57
2023-08-14T07:59:23.089Z,33.10
2023-08-14T08:00:58.047Z,33.01
2023-08-14T08:02:32.886Z,32.53
2023-08-14T08:04:07.925Z,32.90
2023-08-14T08:05:42.952Z,32.88
2023-08-14T08:07:18.092Z,32.09
2023-08-14T08:08:55.107Z,32.43
2023-08-14T08:10:30.526Z,31.47
2023-08-14T08:12:05.692Z,31.85
2023-08-14T08:13:40.823Z,32.22
2023-08-14T08:15:15.745Z,32.11
2023-08-14T08:16:51.490Z,31.43
2023-08-14T08:18:26.447Z,31.60
2023-08-14T08:20:01.639Z,30.89
2023-08-14T08:21:36.698Z,31.16
2023-08-14T08:23:11.702Z,31.07
2023-08-14T08:24:46.648Z,30.87
2023-08-14T08:26:21.571Z,30.17
2023-08-14T08:27:56.457Z,30.18
2023-08-14T08:29:31.340Z,30.06
2023-08-14T08:31:06.261Z,29.06
2023-08-14T08:32:41.341Z,28.98
2023-08-14T08:34:16.256Z,29.26
2023-08-14T08:35:51.263Z,29.21
2023-08-14T08:37:26.103Z,28.73
2023-08-14T08:39:01.152Z,29.72
2023-08-14T08:40:36.876Z,28.54
2023-08-14T08:42:11.979Z,28.57
2023-08-14T08:43:47.891Z,28.39
2023-08-14T08:45:25.142Z,28.44
2023-08-14T08:47:04.801Z,27.81
2023-08-14T08:48:43.763Z,28.55
2023-08-14T08:50:18.903Z,27.52
2023-08-14T08:51:55.105Z,27.66
2023-08-14T08:53:30.539Z,27.63
2023-08-14T08:55:06.626Z,27.83
2023-08-14T08:56:42.562Z,27.29
2023-08-14T08:58:18.811Z,26.63
2023-08-14T08:59:53.927Z,26.19
2023-08-14T09:01:31.886Z,26.76
2023-08-14T09:03:07.277Z,27.52
2023-08-14T09:04:42.793Z,25.99
2023-08-14T09:06:17.757Z,26.44
2023-08-14T09:07:52.804Z,27.63
2023-08-14T09:09:27.994Z,25.30
2023-08-14T09:11:02.905Z,25.81
2023-08-14T09:12:37.783Z,25.56
2023-08-14T09:14:13.697Z,26.02
2023-08-14T09:15:49.103Z,25.33
2023-08-14T09:17:24.807Z,26.29
2023-08-14T09:19:01.430Z,25.50
2023-08-14T09:20:36.394Z,25.34
2023-08-14T09:22:12.542Z,24.64
2023-08-14T09:23:49.605Z,25.07
2023-08-14T09:25:24.494Z,24.63
2023-08-14T09:27:00.045Z,25.00
2023-08-14T09:28:35.586Z,25.14
2023-08-14T09:30:13.172Z,23.81
2023-08-14T09:31:48.208Z,24.40
2023-08-14T09:33:25.317Z,23.78
2023-08-14T09:35:05.612Z,24.13
2023-08-14T09:36:41.288Z,24.60
2023-08-14T09:38:17.360Z,24.32
2023-08-14T09:40:17.612Z,24.26
2023-08-14T09:41:52.529Z,24.38
2023-08-14T09:43:28.378Z,24.19
2023-08-14T09:45:03.724Z,24.10
2023-08-14T09:46:39.515Z,23.94
2023-08-14T09:48:14.593Z,23.29
2023-08-14T09:49:49.886Z,23.44
2023-08-14T09:51:24.796Z,23.92
2023-08-14T09:53:02.184Z,23.27
2023-08-14T09:54:37.319Z,23.74
2023-08-14T09:56:14.870Z,24.43
2023-08-14T09:57:51.233Z,23.19
2023-08-14T09:59:26.107Z,22.98
2023-08-14T10:01:01.049Z,22.88
2023-08-14T10:02:36.876Z,22.53
2023-08-14T10:04:12.302Z,23.62
2023-08-14T10:05:47.224Z,22.58
2023-08-14T10:07:25.465Z,22.35
2023-08-14T10:09:03.106Z,23.42
2023-08-14T10:10:42.660Z,22.67
2023-08-14T10:12:24.988Z,22.46
2023-08-14T10:14:09.351Z,23.48
2023-08-14T10:15:48.820Z,22.41
2023-08-14T10:17:33.715Z,23.20
2023-08-14T10:19:14.366Z,23.91
2023-08-14T10:20:51.203Z,23.69
2023-08-14T10:22:29.793Z,22.05
2023-08-14T10:24:05.639Z,22.39
2023-08-14T10:25:41.547Z,22.38
2023-08-14T10:27:17.032Z,21.40
2023-08-14T10:28:52.756Z,21.84
2023-08-14T10:30:28.588Z,23.12
2023-08-14T10:32:04.778Z,21.60
2023-08-14T10:33:40.728Z,23.51
2023-08-14T10:35:15.678Z,22.60
2023-08-14T10:36:53.452Z,21.77
2023-08-14T10:38:43.194Z,21.10
2023-08-14T10:40:25.770Z,21.85
2023-08-14T10:42:02.065Z,21.89
2023-08-14T10:43:37.373Z,21.50
2023-08-14T10:45:12.825Z,21.39
2023-08-14T10:46:48.748Z,21.73
2023-08-14T10:48:24.905Z,21.46
2023-08-14T10:50:00.356Z,21.96
2023-08-14T10:51:38.268Z,21.67
2023-08-14T10:53:13.312Z,23.31
2023-08-14T10:54:54.376Z,21.04
2023-08-14T10:56:51.161Z,21.39
2023-08-14T10:58:38.109Z,22.95
2023-08-14T11:00:23.132Z,21.75
2023-08-14T11:02:07.857Z,21.70
2023-08-14T11:04:05.677Z,23.90
2023-08-14T11:05:42.246Z,26.45
2023-08-14T11:07:19.133Z,22.94
2023-08-14T11:09:22.449Z,21.96
2023-08-14T11:10:57.577Z,22.54
2023-08-14T11:12:33.790Z,23.06
2023-08-14T11:14:08.760Z,22.78
2023-08-14T11:15:45.088Z,21.70
2023-08-14T11:17:20.410Z,22.09
2023-08-14T11:18:59.213Z,21.79
2023-08-14T11:20:35.271Z,21.33
2023-08-14T11:22:10.749Z,22.27
2023-08-14T11:23:45.762Z,21.30
2023-08-14T11:25:21.587Z,22.12
2023-08-14T11:26:59.836Z,20.05
2023-08-14T11:28:35.154Z,20.72
2023-08-14T11:30:15.174Z,21.41
2023-08-14T11:31:53.849Z,21.33
2023-08-14T11:33:28.794Z,20.36
2023-08-14T11:35:05.571Z,20.30
2023-08-14T11:37:08.240Z,19.77
2023-08-14T11:38:44.402Z,20.36
2023-08-14T11:40:19.517Z,20.26
2023-08-14T11:41:54.478Z,20.55
2023-08-14T11:43:30.625Z,20.56
2023-08-14T11:45:06.956Z,21.73
2023-08-14T11:46:41.881Z,20.38
2023-08-14T11:48:17.058Z,20.14
2023-08-14T11:49:53.234Z,20.49
2023-08-14T11:51:28.204Z,21.14
2023-08-14T11:53:04.171Z,20.30
2023-08-14T11:54:39.252Z,20.00
2023-08-14T11:56:14.527Z,20.35
2023-08-14T11:57:50.237Z,20.72
2023-08-14T11:59:25.198Z,20.46
2023-08-14T12:01:00.979Z,20.13
2023-08-14T12:02:36.572Z,19.68
2023-08-14T12:04:12.783Z,20.28
2023-08-14T12:05:49.512Z,20.96
2023-08-14T12:07:24.980Z,19.90
2023-08-14T12:09:00.279Z,20.81
2023-08-14T12:10:35.290Z,20.21
2023-08-14T12:12:10.246Z,19.94
2023-08-14T12:13:53.884Z,20.69
2023-08-14T12:15:29.913Z,20.95
2023-08-14T12:17:17.296Z,20.82
2023-08-14T12:18:53.200Z,21.94
2023-08-14T12:20:35.685Z,21.47
2023-08-14T12:22:11.027Z,20.22
2023-08-14T12:23:56.587Z,20.71
2023-08-14T12:25:31.503Z,20.44
2023-08-14T12:27:06.730Z,20.57
2023-08-14T12:28:42.859Z,20.18
2023-08-14T12:30:17.744Z,21.49
2023-08-14T12:31:52.775Z,20.87
2023-08-14T12:33:28.406Z,20.84
2023-08-14T12:35:04.517Z,20.38
2023-08-14T12:36:39.880Z,20.66
2023-08-14T12:38:14.688Z,20.86
2023-08-14T12:39:53.110Z,20.86
2023-08-14T12:41:28.097Z,20.16
2023-08-14T12:43:03.278Z,20.70
2023-08-14T12:44:38.160Z,20.48
2023-08-14T12:46:14.087Z,19.86
2023-08-14T12:47:48.952Z,21.40
2023-08-14T12:49:24.170Z,20.09
2023-08-14T12:51:02.727Z,20.32
2023-08-14T12:52:38.319Z,20.48
2023-08-14T12:54:15.356Z,20.58
2023-08-14T12:55:54.950Z,20.00
2023-08-14T12:57:38.105Z,20.40
2023-08-14T12:59:13.731Z,20.42
2023-08-14T13:00:48.566Z,20.99
2023-08-14T13:02:25.051Z,21.33
2023-08-14T13:04:01.007Z,21.62
2023-08-14T13:05:38.941Z,21.91
2023-08-14T13:07:14.973Z,21.20
2023-08-14T13:08:50.030Z,21.39
2023-08-14T13:10:25.166Z,21.19
2023-08-14T13:12:01.621Z,20.26
2023-08-14T13:13:36.796Z,21.39
2023-08-14T13:15:12.197Z,21.01
2023-08-14T13:16:48.633Z,20.90
2023-08-14T13:18:24.575Z,19.98
2023-08-14T13:19:59.523Z,19.85
2023-08-14T13:21:34.392Z,21.29
2023-08-14T13:23:09.208Z,19.55
2023-08-14T13:24:44.246Z,20.00
2023-08-14T13:26:26.505Z,20.22
2023-08-14T13:28:02.748Z,20.03
2023-08-14T13:29:38.430Z,20.09
2023-08-14T13:31:13.766Z,21.51
2023-08-14T13:32:48.662Z,20.94
2023-08-14T13:34:23.544Z,20.33
2023-08-14T13:35:58.395Z,19.90
2023-08-14T13:37:33.478Z,20.44
2023-08-14T13:39:09.276Z,20.43
2023-08-14T13:40:44.706Z,20.53
2023-08-14T13:42:19.815Z,20.58
2023-08-14T13:43:55.146Z,20.55
2023-08-14T13:45:31.584Z,20.13
2023-08-14T13:47:06.738Z,19.78
2023-08-14T13:48:41.751Z,20.23
2023-08-14T13:50:22.964Z,19.89
2023-08-14T13:52:05.524Z,19.78
2023-08-14T13:53:40.352Z,20.43
2023-08-14T13:55:15.216Z,21.19
2023-08-14T13:56:50.245Z,20.53
2023-08-14T13:58:26.478Z,21.41
2023-08-14T14:00:01.471Z,20.68
2023-08-14T14:01:36.393Z,20.55
2023-08-14T14:03:11.477Z,21.51
2023-08-14T14:04:46.441Z,21.58
2023-08-14T14:06:22.136Z,20.86
2023-08-14T14:07:58.330Z,22.25
2023-08-14T14:09:33.677Z,21.59
2023-08-14T14:11:08.577Z,20.49
2023-08-14T14:12:59.775Z,20.70
2023-08-14T14:14:36.480Z,21.40
2023-08-14T14:16:12.103Z,20.60
2023-08-14T14:17:47.017Z,20.77
2023-08-14T14:19:21.866Z,21.02
2023-08-14T14:20:56.898Z,22.15
2023-08-14T14:22:31.762Z,21.02
2023-08-14T14:24:07.002Z,21.34
2023-08-14T14:25:41.916Z,20.86
2023-08-14T14:27:17.177Z,21.25
2023-08-14T14:28:52.230Z,21.00
2023-08-14T14:30:27.097Z,20.81
2023-08-14T14:32:02.067Z,21.17
2023-08-14T14:33:36.941Z,21.56
2023-08-14T14:35:12.921Z,21.32
2023-08-14T14:36:47.876Z,21.77
2023-08-14T14:38:22.698Z,21.70
2023-08-14T14:39:57.833Z,21.67
2023-08-14T14:41:32.743Z,21.28
2023-08-14T14:43:07.591Z,21.44
2023-08-14T14:44:42.892Z,21.76
2023-08-14T14:46:18.023Z,21.45
2023-08-14T14:47:53.132Z,21.99
2023-08-14T14:49:27.962Z,21.40
2023-08-14T14:51:03.011Z,21.73
2023-08-14T14:52:37.885Z,22.45
2023-08-14T14:54:12.686Z,21.85
2023-08-14T14:55:47.809Z,21.83
2023-08-14T14:57:23.054Z,22.15
2023-08-14T14:58:58.196Z,22.10
2023-08-14T15:00:33.662Z,22.44
2023-08-14T15:02:19.006Z,22.98
2023-08-14T15:03:58.873Z,23.39
2023-08-14T15:05:35.796Z,23.28
2023-08-14T15:07:10.720Z,23.51
2023-08-14T15:08:45.666Z,23.34
2023-08-14T15:10:20.605Z,23.73
2023-08-14T15:11:55.654Z,23.13
2023-08-14T15:13:30.580Z,23.23
2023-08-14T15:15:05.814Z,23.53
2023-08-14T15:16:40.672Z,23.51
2023-08-14T15:18:15.805Z,23.70
2023-08-14T15:19:50.828Z,23.40
2023-08-14T15:21:25.665Z,23.46
2023-08-14T15:23:00.561Z,23.91
2023-08-14T15:24:36.934Z,23.96
2023-08-14T15:26:11.905Z,24.44
2023-08-14T15:27:46.765Z,24.87
2023-08-14T15:29:21.717Z,24.57
2023-08-14T15:31:01.467Z,24.35
2023-08-14T15:32:37.572Z,24.34
2023-08-14T15:34:12.517Z,24.38
2023-08-14T15:35:47.397Z,24.96
2023-08-14T15:37:22.563Z,26.14
2023-08-14T15:38:58.011Z,26.23
2023-08-14T15:40:33.146Z,27.38
2023-08-14T15:42:08.250Z,30.54
2023-08-14T15:43:43.593Z,30.51
2023-08-14T15:45:18.636Z,30.01
2023-08-14T15:46:53.457Z,29.91
2023-08-14T15:48:28.290Z,31.34
2023-08-14T15:50:03.435Z,30.79
2023-08-14T15:51:38.355Z,30.79
2023-08-14T15:53:13.300Z,31.21
2023-08-14T15:54:53.607Z,30.30
2023-08-14T15:56:28.942Z,31.26
2023-08-14T15:58:03.802Z,31.13
2023-08-14T15:59:38.784Z,31.67
2023-08-14T16:01:14.997Z,32.79
2023-08-14T16:02:49.971Z,32.13
2023-08-14T16:04:24.891Z,32.84
2023-08-14T16:05:59.830Z,33.67
2023-08-14T16:07:34.772Z,33.91
2023-08-14T16:09:11.279Z,33.71
2023-08-14T16:10:47.376Z,33.73
2023-08-14T16:12:22.339Z,33.55
2023-08-14T16:13:57.176Z,34.67
2023-08-14T16:15:32.424Z,35.12
2023-08-14T16:17:08.113Z,35.03
2023-08-14T16:18:44.070Z,34.86
2023-08-14T16:20:18.961Z,35.44
2023-08-14T16:21:54.003Z,34.50
2023-08-14T16:23:28.957Z,34.91
2023-08-14T16:25:03.827Z,35.16
2023-08-14T16:26:38.639Z,35.01
2023-08-14T16:28:13.529Z,35.07
2023-08-14T16:29:48.431Z,34.42
2023-08-14T16:31:23.347Z,35.29
2023-08-14T16:32:58.327Z,36.14
2023-08-14T16:34:33.473Z,36.08
2023-08-14T16:36:08.405Z,36.23
2023-08-14T16:37:43.474Z,36.35
2023-08-14T16:39:19.484Z,36.10
2023-08-14T16:40:54.893Z,37.43
2023-08-14T16:42:29.775Z,37.90
2023-08-14T16:44:04.921Z,37.50
2023-08-14T16:45:40.262Z,37.81
2023-08-14T16:47:15.267Z,37.43
2023-08-14T16:48:50.158Z,37.91
2023-08-14T16:50:25.616Z,38.64
2023-08-14T16:52:00.526Z,39.94
2023-08-14T16:53:35.566Z,39.37
2023-08-14T16:55:10.738Z,39.56
2023-08-14T16:56:45.594Z,37.72
2023-08-14T16:58:20.438Z,38.48
2023-08-14T16:59:55.560Z,39.16
2023-08-14T17:01:30.384Z,39.44
2023-08-14T17:03:06.800Z,39.43
2023-08-14T17:04:41.763Z,40.68
2023-08-14T17:06:16.856Z,40.29
2023-08-14T17:07:51.834Z,40.66
2023-08-14T17:09:26.670Z,41.29
2023-08-14T17:11:03.169Z,41.33
2023-08-14T17:12:38.170Z,41.65
2023-08-14T17:14:13.101Z,40.69
2023-08-14T17:15:47.941Z,41.67
2023-08-14T17:17:22.760Z,41.28
2023-08-14T17:18:58.496Z,42.27
2023-08-14T17:20:33.339Z,42.47
2023-08-14T17:22:08.272Z,41.87
2023-08-14T17:23:43.223Z,42.16
2023-08-14T17:25:18.307Z,42.26
2023-08-14T17:26:53.179Z,42.59
2023-08-14T17:28:29.935Z,42.94
2023-08-14T17:30:05.275Z,42.95
2023-08-14T17:31:40.195Z,42.74
2023-08-14T17:33:15.396Z,42.77
2023-08-14T17:34:50.420Z,43.13
2023-08-14T17:36:25.270Z,44.06
2023-08-14T17:38:00.368Z,44.92
2023-08-14T17:39:35.244Z,45.28
2023-08-14T17:41:10.205Z,45.30
2023-08-14T17:42:45.075Z,45.15
2023-08-14T17:44:20.031Z,44.41
2023-08-14T17:45:55.267Z,44.72
2023-08-14T17:47:32.673Z,43.81
2023-08-14T17:49:07.548Z,44.11
2023-08-14T17:50:42.568Z,44.46
2023-08-14T17:52:17.422Z,44.37
2023-08-14T17:53:54.131Z,45.27
2023-08-14T17:55:29.003Z,44.95
2023-08-14T17:57:04.456Z,44.43
2023-08-14T17:58:39.287Z,44.98
2023-08-14T18:00:14.467Z,44.74
2023-08-14T18:01:49.312Z,44.80
2023-08-14T18:03:24.614Z,44.73
2023-08-14T18:04:59.558Z,44.71
2023-08-14T18:06:34.751Z,45.91
2023-08-14T18:08:09.627Z,46.36
2023-08-14T18:09:44.712Z,47.38
2023-08-14T18:11:23.012Z,47.40
2023-08-14T18:12:57.892Z,47.41
2023-08-14T18:14:32.821Z,47.29
2023-08-14T18:16:08.683Z,46.30
2023-08-14T18:17:43.759Z,46.06
2023-08-14T18:20:56.408Z,46.27
2023-08-14T18:22:31.814Z,45.48
2023-08-14T18:24:07.114Z,46.21
2023-08-14T18:25:42.008Z,46.90
2023-08-14T18:27:16.897Z,47.24
2023-08-14T18:28:52.297Z,47.15
2023-08-14T18:30:27.335Z,46.86
2023-08-14T18:32:02.191Z,46.99
2023-08-14T18:33:37.208Z,46.40
2023-08-14T18:35:12.819Z,46.21
2023-08-14T18:36:47.825Z,46.55
2023-08-14T18:38:22.701Z,46.63
2023-08-14T18:39:57.741Z,48.28
2023-08-14T18:41:32.913Z,49.10
2023-08-14T18:43:07.884Z,48.63
2023-08-14T18:44:42.804Z,48.28
2023-08-14T18:46:17.836Z,47.99
2023-08-14T18:47:53.038Z,47.61
2023-08-14T18:49:28.042Z,47.90
2023-08-14T18:51:02.892Z,47.99
2023-08-14T18:52:38.289Z,48.47
2023-08-14T18:54:13.312Z,48.06
2023-08-14T18:55:48.197Z,48.01
2023-08-14T18:57:23.211Z,48.00
2023-08-14T18:59:00.274Z,47.68
2023-08-14T19:00:37.064Z,48.30
2023-08-14T19:02:11.944Z,48.68
2023-08-14T19:03:46.845Z,47.46
2023-08-14T19:05:21.830Z,47.90
2023-08-14T19:06:56.796Z,49.13
2023-08-14T19:08:31.715Z,49.00
2023-08-14T19:10:07.574Z,49.30
2023-08-14T19:11:42.490Z,49.66
2023-08-14T19:13:17.774Z,50.35
2023-08-14T19:14:53.281Z,49.69
2023-08-14T19:16:28.230Z,49.57
2023-08-14T19:18:03.567Z,49.19
2023-08-14T19:19:38.628Z,49.50
2023-08-14T19:21:14.251Z,48.19
2023-08-14T19:22:49.345Z,48.26
2023-08-14T19:24:24.296Z,48.58
2023-08-14T19:26:09.035Z,48.71
2023-08-14T19:27:50.088Z,48.58
2023-08-14T19:29:24.962Z,49.79
2023-08-14T19:30:59.884Z,48.71
2023-08-14T19:32:35.143Z,49.61
2023-08-14T19:34:10.133Z,49.57
2023-08-14T19:35:45.026Z,49.38
2023-08-14T19:37:20.123Z,48.40
2023-08-14T19:38:57.836Z,48.49
2023-08-14T19:40:33.742Z,49.10
2023-08-14T19:42:08.758Z,50.08
2023-08-14T19:43:43.602Z,50.66
2023-08-14T19:45:18.852Z,49.33
2023-08-14T19:46:53.701Z,49.50
2023-08-14T19:48:29.220Z,48.96
2023-08-14T19:50:04.368Z,49.25
2023-08-14T19:51:39.564Z,48.34
2023-08-14T19:53:15.789Z,48.75
2023-08-14T19:54:50.767Z,48.22
2023-08-14T19:56:25.611Z,49.75
2023-08-14T19:58:00.672Z,49.61
2023-08-14T19:59:35.766Z,50.01
2023-08-14T20:01:12.844Z,51.25
2023-08-14T20:02:51.749Z,51.14
2023-08-14T20:04:27.474Z,50.12
2023-08-14T20:06:02.356Z,49.14
2023-08-14T20:07:37.881Z,50.05
2023-08-14T20:09:13.057Z,49.15
2023-08-14T20:10:49.168Z,48.55
2023-08-14T20:12:24.366Z,49.23
2023-08-14T20:13:59.390Z,48.50
2023-08-14T20:15:43.503Z,48.45
2023-08-14T20:17:19.078Z,49.07
2023-08-14T20:18:54.774Z,49.15
2023-08-14T20:20:29.724Z,49.64
2023-08-14T20:22:04.596Z,47.98
2023-08-14T20:23:41.184Z,48.38
2023-08-14T20:25:16.155Z,50.06
2023-08-14T20:26:51.034Z,49.39
2023-08-14T20:28:25.879Z,48.98
2023-08-14T20:30:00.816Z,51.00
2023-08-14T20:31:36.358Z,51.42
2023-08-14T20:33:12.295Z,50.36
2023-08-14T20:34:47.247Z,50.79
2023-08-14T20:36:22.930Z,50.80
2023-08-14T20:37:57.834Z,50.20
2023-08-14T20:39:32.788Z,50.09
2023-08-14T20:41:07.627Z,50.87